createdAt,value
2022-08-10T00:01:10.622Z,98771.31
2022-08-10T00:03:43.492Z,98782.56
2022-08-10T00:06:13.647Z,98791.00
2022-08-10T00:08:43.987Z,98783.59
2022-08-10T00:11:15.477Z,98779.25
2022-08-10T00:13:47.312Z,98782.03
2022-08-10T00:16:17.540Z,98773.59
2022-08-10T00:18:50.347Z,98782.03
2022-08-10T00:21:20.553Z,98773.59
2022-08-10T00:23:50.762Z,98783.81
2022-08-10T00:26:20.952Z,98776.91
2022-08-10T00:28:52.355Z,98780.75
2022-08-10T00:31:22.760Z,98777.94
2022-08-10T00:33:55.554Z,98781.50
2022-08-10T00:36:25.789Z,98786.38
2022-08-10T00:38:55.906Z,98774.09
2022-08-10T00:41:26.064Z,98775.34
2022-08-10T00:43:56.207Z,98777.41
2022-08-10T00:46:26.469Z,98782.00
2022-08-10T00:49:00.696Z,98771.25
2022-08-10T00:51:40.192Z,98765.09
2022-08-10T00:54:24.524Z,98775.59
2022-08-10T00:57:16.584Z,98766.38
2022-08-10T00:59:58.504Z,98767.09
2022-08-10T01:02:32.519Z,98776.81
2022-08-10T01:05:09.682Z,98765.31
2022-08-10T01:07:56.716Z,98771.69
2022-08-10T01:10:43.712Z,98769.88
2022-08-10T01:13:21.270Z,98768.59
2022-08-10T01:16:00.938Z,98771.63
2022-08-10T01:18:43.499Z,98774.41
2022-08-10T01:21:57.392Z,98766.72
2022-08-10T01:25:24.123Z,98763.66
2022-08-10T01:28:05.701Z,98772.53
2022-08-10T01:30:42.313Z,98763.06
2022-08-10T01:33:28.803Z,98766.13
2022-08-10T01:36:11.546Z,98753.13
2022-08-10T01:38:46.250Z,98759.69
2022-08-10T01:41:25.996Z,98750.00
2022-08-10T01:44:03.593Z,98768.09
2022-08-10T01:46:39.139Z,98764.25
2022-08-10T01:49:10.668Z,98767.59
2022-08-10T01:51:47.368Z,98762.72
2022-08-10T01:54:22.768Z,98768.06
2022-08-10T01:56:59.004Z,98764.97
2022-08-10T01:59:35.685Z,98763.72
2022-08-10T02:02:12.695Z,98759.38
2022-08-10T02:04:49.336Z,98763.41
2022-08-10T02:07:25.743Z,98764.41
2022-08-10T02:09:59.629Z,98762.59
2022-08-10T02:12:34.522Z,98770.47
2022-08-10T02:15:10.400Z,98767.69
2022-08-10T02:17:59.431Z,98770.47
2022-08-10T02:20:37.066Z,98763.81
2022-08-10T02:23:12.453Z,98766.38
2022-08-10T02:25:44.775Z,98765.34
2022-08-10T02:28:27.520Z,98772.19
2022-08-10T02:31:06.971Z,98766.56
2022-08-10T02:33:57.348Z,98764.28
2022-08-10T02:36:34.005Z,98764.75
2022-08-10T02:39:08.183Z,98763.47
2022-08-10T02:45:14.339Z,98756.53
2022-08-10T02:45:25.766Z,98757.56
2022-08-10T02:47:52.311Z,98760.34
2022-08-10T02:50:30.700Z,98768.47
2022-08-10T02:53:08.596Z,98759.06
2022-08-10T02:56:04.965Z,98761.56
2022-08-10T02:58:41.390Z,98765.38
2022-08-10T03:01:17.346Z,98762.03
2022-08-10T03:03:51.834Z,98762.03
2022-08-10T03:06:29.605Z,98754.13
2022-08-10T03:09:00.778Z,98763.81
2022-08-10T03:12:35.660Z,98760.72
2022-08-10T03:14:25.904Z,98754.59
2022-08-10T03:16:58.671Z,98757.09
2022-08-10T03:20:35.511Z,98753.28
2022-08-10T03:22:23.878Z,98747.88
2022-08-10T03:24:56.505Z,98763.16
2022-08-10T03:27:27.960Z,98757.28
2022-08-10T03:30:28.728Z,98763.66
2022-08-10T03:32:50.552Z,98754.69
2022-08-10T03:35:24.854Z,98768.22
2022-08-10T03:37:59.681Z,98767.69
2022-08-10T03:40:46.165Z,98778.59
2022-08-10T03:43:20.990Z,98774.25
2022-08-10T03:45:56.824Z,98775.53
2022-08-10T03:48:44.772Z,98785.22
2022-08-10T03:51:20.565Z,98782.16
2022-08-10T03:54:05.663Z,98785.47
2022-08-10T03:56:42.076Z,98781.94
2022-08-10T03:59:14.846Z,98785.31
2022-08-10T04:02:41.502Z,98792.16
2022-08-10T04:04:36.994Z,98779.97
2022-08-10T04:07:08.544Z,98785.56
2022-08-10T04:09:43.132Z,98795.78
2022-08-10T04:12:25.180Z,98790.72
2022-08-10T04:14:55.340Z,98795.88
2022-08-10T04:18:03.362Z,98803.03
2022-08-10T04:20:23.163Z,98801.03
2022-08-10T04:22:56.348Z,98798.50
2022-08-10T04:25:30.374Z,98801.59
2022-08-10T04:28:03.202Z,98795.00
2022-08-10T04:30:35.336Z,98800.09
2022-08-10T04:33:08.691Z,98792.97
2022-08-10T04:35:40.415Z,98800.63
2022-08-10T04:38:12.952Z,98797.84
2022-08-10T04:40:46.378Z,98795.78
2022-08-10T04:43:16.792Z,98790.44
2022-08-10T04:45:51.687Z,98794.03
2022-08-10T04:48:42.450Z,98795.09
2022-08-10T04:51:19.531Z,98797.91
2022-08-10T04:54:03.748Z,98796.63
2022-08-10T04:56:41.222Z,98799.44
2022-08-10T04:59:13.765Z,98804.53
2022-08-10T05:02:28.434Z,98806.31
2022-08-10T05:04:38.970Z,98799.63
2022-08-10T05:07:16.878Z,98798.09
2022-08-10T05:10:04.735Z,98802.50
2022-08-10T05:12:40.812Z,98807.66
2022-08-10T05:15:13.971Z,98816.16
2022-08-10T05:18:08.415Z,98807.00
2022-08-10T05:20:36.341Z,98808.34
2022-08-10T05:23:07.444Z,98805.88
2022-08-10T05:25:38.276Z,98803.69
2022-08-10T05:28:11.229Z,98802.97
2022-08-10T05:30:41.531Z,98802.31
2022-08-10T05:33:11.780Z,98794.66
2022-08-10T05:35:57.672Z,98796.25
2022-08-10T05:38:30.350Z,98802.16
2022-08-10T05:41:00.745Z,98802.47
2022-08-10T05:43:33.660Z,98795.59
2022-08-10T05:46:17.006Z,98797.38
2022-08-10T05:48:59.423Z,98799.69
2022-08-10T05:51:32.235Z,98798.16
2022-08-10T05:54:06.484Z,98789.50
2022-08-10T05:56:56.527Z,98793.28
2022-08-10T06:00:10.794Z,98797.88
2022-08-10T06:02:35.032Z,98791.44
2022-08-10T06:05:13.205Z,98798.09
2022-08-10T06:07:49.834Z,98799.31
2022-08-10T06:10:32.687Z,98799.22
2022-08-10T06:13:29.634Z,98792.53
2022-08-10T06:16:13.629Z,98802.75
2022-08-10T06:18:45.398Z,98804.47
2022-08-10T06:21:16.553Z,98803.63
2022-08-10T06:23:47.736Z,98805.38
2022-08-10T06:26:21.416Z,98811.47
2022-08-10T06:29:02.807Z,98818.81
2022-08-10T06:31:48.031Z,98814.31
2022-08-10T06:34:25.826Z,98816.81
2022-08-10T06:36:58.400Z,98823.59
2022-08-10T06:39:36.789Z,98818.91
2022-08-10T06:42:20.280Z,98821.56
2022-08-10T06:45:01.085Z,98822.78
2022-08-10T06:47:44.753Z,98824.97
2022-08-10T06:50:44.979Z,98819.66
2022-08-10T06:53:20.364Z,98816.09
2022-08-10T06:55:57.306Z,98821.59
2022-08-10T06:58:32.323Z,98825.72
2022-08-10T07:01:05.571Z,98818.53
2022-08-10T07:03:46.108Z,98820.72
2022-08-10T07:06:19.950Z,98820.56
2022-08-10T07:08:52.139Z,98823.13
2022-08-10T07:11:24.226Z,98822.94
2022-08-10T07:14:14.626Z,98821.44
2022-08-10T07:16:50.851Z,98811.38
2022-08-10T07:19:26.867Z,98813.81
2022-08-10T07:21:57.971Z,98815.91
2022-08-10T07:24:33.037Z,98809.53
2022-08-10T07:27:04.707Z,98813.53
2022-08-10T07:29:53.942Z,98816.19
2022-08-10T07:32:26.715Z,98810.91
2022-08-10T07:35:00.900Z,98820.00
2022-08-10T07:37:33.737Z,98817.84
2022-08-10T07:40:07.777Z,98817.13
2022-08-10T07:42:45.143Z,98806.47
2022-08-10T07:45:16.389Z,98815.59
2022-08-10T07:47:55.252Z,98813.44
2022-08-10T07:50:35.932Z,98813.53
2022-08-10T07:53:07.811Z,98816.41
2022-08-10T07:56:04.785Z,98813.88
2022-08-10T07:58:33.506Z,98813.69
2022-08-10T08:01:04.437Z,98812.94
2022-08-10T08:03:36.096Z,98814.31
2022-08-10T08:06:12.004Z,98815.28
2022-08-10T08:08:45.846Z,98815.31
2022-08-10T08:11:26.262Z,98818.34
2022-08-10T08:13:58.429Z,98815.28
2022-08-10T08:16:29.328Z,98819.09
2022-08-10T08:24:05.896Z,98812.09
2022-08-10T08:24:46.509Z,98813.84
2022-08-10T08:27:19.859Z,98806.34
2022-08-10T08:29:53.865Z,98802.22
2022-08-10T08:32:28.697Z,98804.44
2022-08-10T08:35:02.147Z,98800.41
2022-08-10T08:38:32.172Z,98801.75
2022-08-10T08:40:33.642Z,98805.78
2022-08-10T08:43:31.363Z,98801.22
2022-08-10T08:46:33.376Z,98793.56
2022-08-10T08:50:08.234Z,98792.97
2022-08-10T08:52:59.397Z,98781.81
2022-08-10T08:56:02.903Z,98786.88
2022-08-10T08:58:50.782Z,98779.81
2022-08-10T09:01:44.496Z,98778.66
2022-08-10T09:04:43.878Z,98761.41
2022-08-10T09:08:23.016Z,98773.66
2022-08-10T09:11:04.281Z,98763.91
2022-08-10T09:13:42.574Z,98763.69
2022-08-10T09:16:28.022Z,98772.53
2022-08-10T09:19:06.490Z,98778.13
2022-08-10T09:22:13.095Z,98775.69
2022-08-10T09:24:51.678Z,98770.66
2022-08-10T09:27:35.232Z,98774.66
2022-08-10T09:30:10.735Z,98768.75
2022-08-10T09:36:14.962Z,98768.69
2022-08-10T09:36:25.995Z,98778.59
2022-08-10T09:38:55.731Z,98779.72
2022-08-10T09:41:43.053Z,98773.47
2022-08-10T09:44:31.026Z,98772.47
2022-08-10T09:47:23.088Z,98778.19
2022-08-10T09:50:25.691Z,98773.22
2022-08-10T09:53:09.021Z,98776.66
2022-08-10T09:56:17.634Z,98774.41
2022-08-10T09:59:29.308Z,98780.56
2022-08-10T10:02:03.457Z,98783.38
2022-08-10T10:04:46.831Z,98786.19
2022-08-10T10:07:29.620Z,98789.13
2022-08-10T10:10:06.726Z,98786.19
2022-08-10T10:12:48.002Z,98777.53
2022-08-10T10:15:33.599Z,98784.44
2022-08-10T10:18:36.670Z,98784.50
2022-08-10T10:21:12.270Z,98782.59
2022-08-10T10:24:20.282Z,98776.53
2022-08-10T10:26:59.205Z,98773.88
2022-08-10T10:29:57.318Z,98779.38
2022-08-10T10:32:45.149Z,98775.81
2022-08-10T10:35:27.118Z,98775.22
2022-08-10T10:38:02.722Z,98768.19
2022-08-10T10:40:50.847Z,98768.53
2022-08-10T10:43:42.587Z,98761.09
2022-08-10T10:46:32.702Z,98755.72
2022-08-10T10:49:09.501Z,98754.38
2022-08-10T10:51:53.014Z,98759.34
2022-08-10T10:54:35.201Z,98763.34
2022-08-10T10:57:15.126Z,98756.59
2022-08-10T10:59:57.783Z,98765.53
2022-08-10T11:02:48.741Z,98755.59
2022-08-10T11:05:30.870Z,98750.72
2022-08-10T11:08:14.531Z,98752.13
2022-08-10T11:10:52.688Z,98754.47
2022-08-10T11:14:24.951Z,98756.31
2022-08-10T11:16:31.733Z,98745.72
2022-08-10T11:19:16.580Z,98744.47
2022-08-10T11:21:58.462Z,98747.25
2022-08-10T11:24:49.826Z,98743.56
2022-08-10T11:27:34.531Z,98747.44
2022-08-10T11:30:10.730Z,98746.91
2022-08-10T11:32:54.419Z,98742.19
2022-08-10T11:35:35.290Z,98741.72
2022-08-10T11:38:31.668Z,98744.00
2022-08-10T11:42:10.323Z,98738.84
2022-08-10T11:44:23.100Z,98737.59
2022-08-10T11:47:04.687Z,98733.22
2022-08-10T11:49:42.761Z,98737.25
2022-08-10T11:52:19.880Z,98741.22
2022-08-10T11:54:56.341Z,98729.41
2022-08-10T11:57:53.366Z,98735.72
2022-08-10T12:00:24.717Z,98727.53
2022-08-10T12:03:05.757Z,98713.88
2022-08-10T12:05:48.338Z,98717.38
2022-08-10T12:10:03.451Z,98703.63
2022-08-10T12:11:24.653Z,98703.38
2022-08-10T12:14:20.704Z,98709.88
2022-08-10T12:16:55.695Z,98706.91
2022-08-10T12:19:58.725Z,98706.50
2022-08-10T12:22:34.126Z,98704.13
2022-08-10T12:25:09.502Z,98708.72
2022-08-10T12:27:45.092Z,98707.41
2022-08-10T12:30:21.036Z,98705.91
2022-08-10T12:33:03.701Z,98707.09
2022-08-10T12:35:56.062Z,98702.78
2022-08-10T12:38:43.589Z,98701.31
2022-08-10T12:41:43.635Z,98698.72
2022-08-10T12:44:21.141Z,98697.44
2022-08-10T12:47:10.361Z,98695.81
2022-08-10T12:50:26.726Z,98687.03
2022-08-10T12:53:00.275Z,98681.28
2022-08-10T12:55:40.595Z,98674.84
2022-08-10T12:59:00.333Z,98667.34
2022-08-10T13:01:17.275Z,98669.22
2022-08-10T13:04:23.099Z,98669.50
2022-08-10T13:06:51.658Z,98668.72
2022-08-10T13:09:25.998Z,98667.75
2022-08-10T13:12:35.135Z,98665.28
2022-08-10T13:14:59.265Z,98659.78
2022-08-10T13:17:40.024Z,98658.84
2022-08-10T13:20:24.240Z,98653.63
2022-08-10T13:22:58.113Z,98650.00
2022-08-10T13:25:34.974Z,98644.91
2022-08-10T13:28:37.489Z,98639.69
2022-08-10T13:31:11.468Z,98651.41
2022-08-10T13:34:40.260Z,98649.91
2022-08-10T13:36:46.702Z,98652.72
2022-08-10T13:39:21.307Z,98649.31
2022-08-10T13:41:54.305Z,98648.84
2022-08-10T13:44:38.372Z,98646.38
2022-08-10T13:47:10.335Z,98643.00
2022-08-10T13:49:50.297Z,98639.84
2022-08-10T13:52:26.702Z,98637.13
2022-08-10T13:55:00.718Z,98636.69
2022-08-10T13:57:33.322Z,98630.84
2022-08-10T14:00:34.760Z,98632.69
2022-08-10T14:03:04.421Z,98624.38
2022-08-10T14:05:38.959Z,98628.91
2022-08-10T14:08:16.963Z,98624.19
2022-08-10T14:11:04.097Z,98629.59
2022-08-10T14:13:45.900Z,98623.91
2022-08-10T14:16:17.270Z,98624.53
2022-08-10T14:18:48.579Z,98620.97
2022-08-10T14:21:19.271Z,98626.13
2022-08-10T14:23:54.071Z,98618.44
2022-08-10T14:26:28.326Z,98623.09
2022-08-10T14:29:06.870Z,98617.47
2022-08-10T14:32:00.377Z,98615.94
2022-08-10T14:36:16.051Z,98612.16
2022-08-10T14:37:38.226Z,98612.47
2022-08-10T14:40:17.753Z,98608.59
2022-08-10T14:42:53.755Z,98600.41
2022-08-10T14:45:29.116Z,98607.19
2022-08-10T14:48:04.064Z,98600.34
2022-08-10T14:50:36.324Z,98603.97
2022-08-10T14:53:12.146Z,98597.31
2022-08-10T14:55:57.777Z,98590.78
2022-08-10T14:58:36.050Z,98587.47
2022-08-10T15:01:11.013Z,98583.25
2022-08-10T15:04:00.931Z,98576.47
2022-08-10T15:06:41.866Z,98570.69
2022-08-10T15:09:19.401Z,98563.66
2022-08-10T15:12:15.856Z,98566.41
2022-08-10T15:14:49.918Z,98570.72
2022-08-10T15:17:28.702Z,98574.34
2022-08-10T15:20:14.407Z,98574.59
2022-08-10T15:22:50.941Z,98573.81
2022-08-10T15:25:25.615Z,98571.50
2022-08-10T15:28:06.381Z,98573.13
2022-08-10T15:30:43.156Z,98572.63
2022-08-10T15:33:59.334Z,98572.44
2022-08-10T15:36:37.040Z,98577.06
2022-08-10T15:40:05.414Z,98573.34
2022-08-10T15:42:08.685Z,98569.78
2022-08-10T15:44:45.996Z,98566.84
2022-08-10T15:47:23.362Z,98568.91
2022-08-10T15:50:01.899Z,98563.38
2022-08-10T15:52:39.797Z,98562.72
2022-08-10T15:55:41.466Z,98562.13
2022-08-10T15:58:38.774Z,98560.84
2022-08-10T16:02:03.975Z,98556.97
2022-08-10T16:04:13.522Z,98563.09
2022-08-10T16:06:50.351Z,98562.16
2022-08-10T16:10:10.491Z,98557.66
2022-08-10T16:12:29.596Z,98554.22
2022-08-10T16:15:07.918Z,98551.41
2022-08-10T16:17:54.449Z,98553.56
2022-08-10T16:20:31.548Z,98542.50
2022-08-10T16:23:06.977Z,98546.13
2022-08-10T16:25:47.870Z,98548.47
2022-08-10T16:28:24.600Z,98539.56
2022-08-10T16:30:58.270Z,98538.03
2022-08-10T16:33:53.071Z,98536.34
2022-08-10T16:36:26.634Z,98536.19
2022-08-10T16:38:58.674Z,98534.50
2022-08-10T16:42:04.506Z,98532.63
2022-08-10T16:44:23.262Z,98540.09
2022-08-10T16:46:54.661Z,98522.78
2022-08-10T16:49:29.372Z,98527.97
2022-08-10T16:52:00.437Z,98526.28
2022-08-10T16:54:32.408Z,98530.41
2022-08-10T16:57:09.042Z,98530.00
2022-08-10T16:59:42.353Z,98526.59
2022-08-10T17:02:20.525Z,98529.66
2022-08-10T17:04:55.810Z,98528.00
2022-08-10T17:07:30.878Z,98520.22
2022-08-10T17:10:07.892Z,98520.28
2022-08-10T17:12:42.169Z,98520.06
2022-08-10T17:15:13.921Z,98524.25
2022-08-10T17:17:50.147Z,98524.06
2022-08-10T17:20:30.247Z,98519.19
2022-08-10T17:23:06.694Z,98518.47
2022-08-10T17:25:49.016Z,98518.81
2022-08-10T17:28:35.886Z,98518.13
2022-08-10T17:31:24.258Z,98526.28
2022-08-10T17:34:18.131Z,98527.88
2022-08-10T17:37:01.324Z,98528.44
2022-08-10T17:39:38.607Z,98524.09
2022-08-10T17:42:12.536Z,98516.94
2022-08-10T17:44:48.491Z,98518.28
2022-08-10T17:47:19.656Z,98520.94
2022-08-10T17:49:51.342Z,98516.00
2022-08-10T17:52:29.202Z,98522.88
2022-08-10T17:55:04.430Z,98518.34
2022-08-10T17:57:40.284Z,98528.25
2022-08-10T18:00:15.480Z,98528.09
2022-08-10T18:02:50.014Z,98526.59
2022-08-10T18:05:21.719Z,98528.69
2022-08-10T18:07:57.469Z,98524.50
2022-08-10T18:10:29.503Z,98532.13
2022-08-10T18:13:01.221Z,98527.19
2022-08-10T18:15:33.978Z,98530.41
2022-08-10T18:18:06.577Z,98527.94
2022-08-10T18:20:40.701Z,98532.50
2022-08-10T18:23:14.648Z,98533.19
2022-08-10T18:25:47.572Z,98543.22
2022-08-10T18:28:22.269Z,98539.41
2022-08-10T18:30:55.868Z,98536.34
2022-08-10T18:33:31.517Z,98548.25
2022-08-10T18:36:06.103Z,98549.53
2022-08-10T18:38:43.176Z,98546.47
2022-08-10T18:41:19.819Z,98551.13
2022-08-10T18:44:07.071Z,98544.06
2022-08-10T18:46:49.498Z,98548.34
2022-08-10T18:49:29.659Z,98554.31
2022-08-10T18:52:05.010Z,98557.44
2022-08-10T18:54:47.372Z,98554.91
2022-08-10T18:57:36.007Z,98553.69
2022-08-10T19:00:13.529Z,98557.38
2022-08-10T19:03:25.272Z,98561.03
2022-08-10T19:06:14.932Z,98554.03
2022-08-10T19:08:59.306Z,98559.41
2022-08-10T19:11:54.654Z,98573.84
2022-08-10T19:14:37.871Z,98567.13
2022-08-10T19:17:18.643Z,98559.44
2022-08-10T19:20:02.401Z,98557.63
2022-08-10T19:22:44.889Z,98562.38
2022-08-10T19:26:39.360Z,98556.97
2022-08-10T19:28:31.015Z,98561.75
2022-08-10T19:31:09.266Z,98573.78
2022-08-10T19:34:11.392Z,98562.88
2022-08-10T19:36:55.533Z,98566.38
2022-08-10T19:39:50.849Z,98568.75
2022-08-10T19:42:31.613Z,98568.66
2022-08-10T19:45:56.192Z,98561.69
2022-08-10T19:48:22.817Z,98564.59
2022-08-10T19:51:00.814Z,98567.31
2022-08-10T19:53:44.108Z,98559.72
2022-08-10T19:56:36.948Z,98559.59
2022-08-10T20:00:16.852Z,98554.03
2022-08-10T20:02:25.176Z,98550.53
2022-08-10T20:05:06.477Z,98556.28
2022-08-10T20:07:45.313Z,98552.25
2022-08-10T20:10:28.348Z,98558.53
2022-08-10T20:13:12.104Z,98562.75
2022-08-10T20:15:49.169Z,98553.91
2022-08-10T20:18:29.263Z,98555.31
2022-08-10T20:21:06.920Z,98559.28
2022-08-10T20:23:39.038Z,98566.00
2022-08-10T20:26:21.096Z,98560.22
2022-08-10T20:29:07.735Z,98560.81
2022-08-10T20:31:44.543Z,98554.75
2022-08-10T20:34:25.085Z,98561.22
2022-08-10T20:37:03.279Z,98562.81
2022-08-10T20:39:51.418Z,98565.97
2022-08-10T20:42:26.151Z,98564.97
2022-08-10T20:45:07.184Z,98563.75
2022-08-10T20:47:53.713Z,98567.41
2022-08-10T20:50:38.920Z,98559.34
2022-08-10T20:53:15.432Z,98563.25
2022-08-10T20:55:54.954Z,98568.50
2022-08-10T20:59:10.141Z,98563.47
2022-08-10T21:02:06.819Z,98560.66
2022-08-10T21:04:55.593Z,98561.41
2022-08-10T21:08:08.232Z,98575.88
2022-08-10T21:11:00.454Z,98567.25
2022-08-10T21:14:06.399Z,98566.31
2022-08-10T21:16:52.272Z,98558.69
2022-08-10T21:19:53.804Z,98568.19
2022-08-10T21:22:29.547Z,98572.59
2022-08-10T21:25:07.740Z,98567.25
2022-08-10T21:28:03.442Z,98568.31
2022-08-10T21:30:57.745Z,98569.13
2022-08-10T21:33:35.840Z,98572.78
2022-08-10T21:36:12.920Z,98568.72
2022-08-10T21:38:51.685Z,98564.66
2022-08-10T21:41:58.227Z,98570.34
2022-08-10T21:45:18.701Z,98565.50
2022-08-10T21:48:30.281Z,98566.84
2022-08-10T21:51:24.017Z,98579.69
2022-08-10T21:54:19.953Z,98566.88
2022-08-10T21:57:21.615Z,98560.50
2022-08-10T22:00:13.760Z,98557.44
2022-08-10T22:02:59.377Z,98572.63
2022-08-10T22:05:47.703Z,98575.22
2022-08-10T22:08:34.677Z,98570.38
2022-08-10T22:11:20.262Z,98582.94
2022-08-10T22:14:09.488Z,98578.63
2022-08-10T22:17:02.738Z,98569.47
2022-08-10T22:19:50.512Z,98569.75
2022-08-10T22:22:44.802Z,98572.78
2022-08-10T22:25:54.017Z,98569.25
2022-08-10T22:28:37.155Z,98573.88
2022-08-10T22:31:43.666Z,98568.00
2022-08-10T22:35:04.376Z,98571.84
2022-08-10T22:37:58.817Z,98565.50
2022-08-10T22:40:50.611Z,98567.56
2022-08-10T22:43:43.124Z,98565.03
2022-08-10T22:46:35.849Z,98570.13
2022-08-10T22:49:03.616Z,98567.56
2022-08-10T22:51:55.562Z,98572.47
2022-08-10T22:54:57.403Z,98570.69
2022-08-10T22:57:40.218Z,98562.25
2022-08-10T23:00:16.885Z,98569.66
2022-08-10T23:02:58.321Z,98573.28
2022-08-10T23:05:36.655Z,98570.00
2022-08-10T23:08:30.073Z,98571.53
2022-08-10T23:11:06.745Z,98577.66
2022-08-10T23:13:42.012Z,98573.34
2022-08-10T23:16:33.741Z,98575.69
2022-08-10T23:19:11.169Z,98581.81
2022-08-10T23:22:03.365Z,98582.06
2022-08-10T23:24:40.610Z,98571.03
2022-08-10T23:27:38.087Z,98577.97
2022-08-10T23:30:10.880Z,98574.13
2022-08-10T23:32:51.375Z,98583.09
2022-08-10T23:36:30.535Z,98571.84
2022-08-10T23:38:25.242Z,98576.19
2022-08-10T23:40:59.130Z,98576.66
2022-08-10T23:43:53.429Z,98573.38
2022-08-10T23:46:26.402Z,98571.84
2022-08-10T23:48:59.750Z,98558.31
2022-08-10T23:51:38.778Z,98556.50
2022-08-10T23:54:27.936Z,98558.03
2022-08-10T23:57:02.278Z,98556.75
2022-08-10T23:59:35.534Z,98561.88
